CheckWX is a tool to help pilots better visualize weather data.  It is not intended as a substitute for an official pre-flight weather briefing.

03:15:45 UTC

KEDE METAR
Northeastern Regional Airport
Edenton, North Carolina, USA
Current

16 mins ago

KEDE 180300Z AUTO 02003KT 10SM CLR 20/18 A3007 RMK AO2 T02000181
Observed
Sep-18 @ 03:00 UTC
Wind
  • 020° at 3 KTS
Visibility
10 SM
Flight Rules
VFR
Cloud Levels
  • Clear skies
Temperature
20°C / 68°F
Dewpoint
18°C / 64°F
Humidity
88%
Altimeter
30.07" Hg
Pressure
1018.32 hPa
Previous

36 mins ago

KEDE 180240Z AUTO 02004KT 10SM CLR 21/18 A3007 RMK AO2 T02050182
Observed
Sep-18 @ 02:40 UTC
Wind
  • 020° at 4 KTS
Visibility
10 SM
Flight Rules
VFR
Cloud Levels
  • Clear skies
Temperature
21°C / 70°F
Dewpoint
18°C / 64°F
Humidity
83%
Altimeter
30.07" Hg
Pressure
1018.32 hPa
Previous

56 mins ago

KEDE 180220Z AUTO 03004KT 10SM CLR 21/19 A3006 RMK AO2 T02070185
Observed
Sep-18 @ 02:20 UTC
Wind
  • 030° at 4 KTS
Visibility
10 SM
Flight Rules
VFR
Cloud Levels
  • Clear skies
Temperature
21°C / 70°F
Dewpoint
19°C / 66°F
Humidity
88%
Altimeter
30.06" Hg
Pressure
1017.92 hPa